sensor_id;sensor_type;location;lat;lon;timestamp;pressure;altitude;pressure_sealevel;temperature;humidity
3250;BME280;1637;42.020;23.992;2022-12-10T00:00:27;92242.41;;;12.03;90.04
3250;BME280;1637;42.020;23.992;2022-12-10T00:02:54;92251.59;;;12.18;88.72
3250;BME280;1637;42.020;23.992;2022-12-10T00:05:21;92248.97;;;12.15;88.95
3250;BME280;1637;42.020;23.992;2022-12-10T00:07:48;92250.66;;;12.09;88.54
3250;BME280;1637;42.020;23.992;2022-12-10T00:10:15;92251.09;;;12.07;88.18
3250;BME280;1637;42.020;23.992;2022-12-10T00:12:42;92243.00;;;12.23;87.42
3250;BME280;1637;42.020;23.992;2022-12-10T00:15:09;92243.94;;;12.17;87.37
3250;BME280;1637;42.020;23.992;2022-12-10T00:17:38;92241.41;;;12.26;86.68
3250;BME280;1637;42.020;23.992;2022-12-10T00:20:05;92237.44;;;12.30;86.27
3250;BME280;1637;42.020;23.992;2022-12-10T00:22:32;92232.63;;;12.38;86.47
3250;BME280;1637;42.020;23.992;2022-12-10T00:24:59;92238.72;;;12.26;86.36
3250;BME280;1637;42.020;23.992;2022-12-10T00:27:26;92235.94;;;12.29;86.52
3250;BME280;1637;42.020;23.992;2022-12-10T00:29:53;92249.03;;;12.27;86.55
3250;BME280;1637;42.020;23.992;2022-12-10T00:32:19;92252.44;;;12.44;85.06
3250;BME280;1637;42.020;23.992;2022-12-10T00:34:48;92243.06;;;12.36;85.31
3250;BME280;1637;42.020;23.992;2022-12-10T00:37:14;92248.09;;;12.34;85.63
3250;BME280;1637;42.020;23.992;2022-12-10T00:39:41;92259.59;;;12.34;85.70
3250;BME280;1637;42.020;23.992;2022-12-10T00:42:08;92243.66;;;12.27;87.01
3250;BME280;1637;42.020;23.992;2022-12-10T00:44:35;92240.41;;;12.20;86.74
3250;BME280;1637;42.020;23.992;2022-12-10T00:47:02;92246.66;;;12.29;86.12
3250;BME280;1637;42.020;23.992;2022-12-10T00:49:29;92234.63;;;12.21;86.45
3250;BME280;1637;42.020;23.992;2022-12-10T00:51:57;92242.25;;;12.23;86.57
3250;BME280;1637;42.020;23.992;2022-12-10T00:54:24;92242.06;;;12.30;86.01
3250;BME280;1637;42.020;23.992;2022-12-10T00:56:51;92237.97;;;12.25;85.97
3250;BME280;1637;42.020;23.992;2022-12-10T00:59:18;92238.41;;;12.24;85.35
3250;BME280;1637;42.020;23.992;2022-12-10T01:01:44;92237.78;;;12.32;84.97
3250;BME280;1637;42.020;23.992;2022-12-10T01:04:14;92230.38;;;12.36;84.02
3250;BME280;1637;42.020;23.992;2022-12-10T01:06:43;92228.47;;;12.50;83.04
3250;BME280;1637;42.020;23.992;2022-12-10T01:09:13;92221.91;;;12.51;83.63
3250;BME280;1637;42.020;23.992;2022-12-10T01:11:41;92231.59;;;12.48;83.43
3250;BME280;1637;42.020;23.992;2022-12-10T01:14:10;92234.91;;;12.39;83.64
3250;BME280;1637;42.020;23.992;2022-12-10T01:16:37;92231.28;;;12.46;83.44
3250;BME280;1637;42.020;23.992;2022-12-10T01:19:05;92242.13;;;12.43;83.99
3250;BME280;1637;42.020;23.992;2022-12-10T01:21:32;92234.38;;;12.45;84.02
3250;BME280;1637;42.020;23.992;2022-12-10T01:23:59;92244.16;;;12.51;83.76
3250;BME280;1637;42.020;23.992;2022-12-10T01:26:29;92241.34;;;12.42;83.66
3250;BME280;1637;42.020;23.992;2022-12-10T01:28:57;92249.00;;;12.44;83.48
3250;BME280;1637;42.020;23.992;2022-12-10T01:31:26;92243.41;;;12.51;83.43
3250;BME280;1637;42.020;23.992;2022-12-10T01:33:54;92242.63;;;12.37;84.73
3250;BME280;1637;42.020;23.992;2022-12-10T01:36:23;92243.00;;;12.52;84.19
3250;BME280;1637;42.020;23.992;2022-12-10T01:38:51;92232.13;;;12.43;84.32
3250;BME280;1637;42.020;23.992;2022-12-10T01:41:21;92234.16;;;12.39;84.96
3250;BME280;1637;42.020;23.992;2022-12-10T01:43:55;92233.50;;;12.48;84.78
3250;BME280;1637;42.020;23.992;2022-12-10T01:46:24;92226.44;;;12.54;84.42
3250;BME280;1637;42.020;23.992;2022-12-10T01:48:52;92198.34;;;12.29;84.35
3250;BME280;1637;42.020;23.992;2022-12-10T01:51:20;92220.22;;;12.57;83.84
3250;BME280;1637;42.020;23.992;2022-12-10T01:53:47;92224.91;;;12.40;84.75
3250;BME280;1637;42.020;23.992;2022-12-10T01:56:16;92218.91;;;12.49;84.75
3250;BME280;1637;42.020;23.992;2022-12-10T01:58:44;92213.81;;;12.25;85.64
3250;BME280;1637;42.020;23.992;2022-12-10T02:01:21;92213.81;;;12.25;85.93
3250;BME280;1637;42.020;23.992;2022-12-10T02:04:06;92207.91;;;12.30;85.75
3250;BME280;1637;42.020;23.992;2022-12-10T02:06:45;92217.47;;;12.31;85.71
3250;BME280;1637;42.020;23.992;2022-12-10T02:09:25;92211.72;;;12.46;84.93
3250;BME280;1637;42.020;23.992;2022-12-10T02:12:02;92211.16;;;12.38;84.92
3250;BME280;1637;42.020;23.992;2022-12-10T02:14:38;92216.44;;;12.42;84.47
3250;BME280;1637;42.020;23.992;2022-12-10T02:17:14;92221.91;;;12.51;84.65
3250;BME280;1637;42.020;23.992;2022-12-10T02:19:58;92221.91;;;12.51;84.40
3250;BME280;1637;42.020;23.992;2022-12-10T02:22:31;92233.41;;;12.38;85.29
3250;BME280;1637;42.020;23.992;2022-12-10T02:25:00;92229.78;;;12.45;85.05
3250;BME280;1637;42.020;23.992;2022-12-10T02:27:34;92228.34;;;12.41;85.56
3250;BME280;1637;42.020;23.992;2022-12-10T02:30:04;92226.34;;;12.45;85.35
3250;BME280;1637;42.020;23.992;2022-12-10T02:32:33;92213.66;;;12.45;85.62
3250;BME280;1637;42.020;23.992;2022-12-10T02:35:05;92203.53;;;12.36;85.61
3250;BME280;1637;42.020;23.992;2022-12-10T02:37:37;92205.19;;;12.47;85.63
3250;BME280;1637;42.020;23.992;2022-12-10T02:40:07;92208.81;;;12.40;85.71
3250;BME280;1637;42.020;23.992;2022-12-10T02:42:39;92209.66;;;12.37;86.24
3250;BME280;1637;42.020;23.992;2022-12-10T02:45:09;92214.16;;;12.40;86.05
3250;BME280;1637;42.020;23.992;2022-12-10T02:47:38;92206.34;;;12.46;85.66
3250;BME280;1637;42.020;23.992;2022-12-10T02:50:06;92201.50;;;12.41;86.05
3250;BME280;1637;42.020;23.992;2022-12-10T02:52:36;92203.53;;;12.36;86.12
3250;BME280;1637;42.020;23.992;2022-12-10T02:55:03;92199.75;;;12.34;86.62
3250;BME280;1637;42.020;23.992;2022-12-10T02:57:35;92195.44;;;12.24;86.84
3250;BME280;1637;42.020;23.992;2022-12-10T03:00:11;92201.16;;;12.38;86.79
3250;BME280;1637;42.020;23.992;2022-12-10T03:03:16;92191.47;;;12.28;86.98
3250;BME280;1637;42.020;23.992;2022-12-10T03:05:56;92187.59;;;12.29;87.23
3250;BME280;1637;42.020;23.992;2022-12-10T03:08:28;92185.75;;;12.26;87.54
3250;BME280;1637;42.020;23.992;2022-12-10T03:10:59;92179.59;;;12.13;88.33
3250;BME280;1637;42.020;23.992;2022-12-10T03:13:30;92183.72;;;12.30;87.60
3250;BME280;1637;42.020;23.992;2022-12-10T03:16:01;92182.03;;;12.36;87.25
3250;BME280;1637;42.020;23.992;2022-12-10T03:18:30;92182.47;;;12.35;87.37
3250;BME280;1637;42.020;23.992;2022-12-10T03:21:01;92182.59;;;12.02;89.03
3250;BME280;1637;42.020;23.992;2022-12-10T03:23:29;92150.91;;;11.97;89.07
3250;BME280;1637;42.020;23.992;2022-12-10T03:25:59;92191.00;;;12.17;89.21
3250;BME280;1637;42.020;23.992;2022-12-10T03:28:26;92180.44;;;12.10;90.34
3250;BME280;1637;42.020;23.992;2022-12-10T03:30:55;92181.22;;;12.11;90.35
3250;BME280;1637;42.020;23.992;2022-12-10T03:33:24;92181.13;;;12.14;89.55
3250;BME280;1637;42.020;23.992;2022-12-10T03:35:51;92177.44;;;12.08;90.14
3250;BME280;1637;42.020;23.992;2022-12-10T03:38:18;92175.41;;;12.12;90.66
3250;BME280;1637;42.020;23.992;2022-12-10T03:40:45;92180.75;;;11.99;91.21
3250;BME280;1637;42.020;23.992;2022-12-10T03:43:12;92183.19;;;11.94;91.26
3250;BME280;1637;42.020;23.992;2022-12-10T03:45:39;92180.09;;;11.95;91.94
3250;BME280;1637;42.020;23.992;2022-12-10T03:48:06;92181.13;;;12.14;91.08
3250;BME280;1637;42.020;23.992;2022-12-10T03:50:34;92174.22;;;12.00;91.87
3250;BME280;1637;42.020;23.992;2022-12-10T03:53:01;92169.09;;;11.90;92.31
3250;BME280;1637;42.020;23.992;2022-12-10T03:55:28;92167.13;;;12.07;91.32
3250;BME280;1637;42.020;23.992;2022-12-10T03:57:54;92136.78;;;11.81;91.66
3250;BME280;1637;42.020;23.992;2022-12-10T04:00:21;92148.22;;;11.97;91.12
3250;BME280;1637;42.020;23.992;2022-12-10T04:02:48;92157.03;;;11.98;91.69
3250;BME280;1637;42.020;23.992;2022-12-10T04:05:15;92152.59;;;11.91;92.08
3250;BME280;1637;42.020;23.992;2022-12-10T04:07:43;92155.03;;;12.15;90.61
3250;BME280;1637;42.020;23.992;2022-12-10T04:10:10;92157.69;;;12.02;91.13
3250;BME280;1637;42.020;23.992;2022-12-10T04:12:37;92172.06;;;12.08;90.47
3250;BME280;1637;42.020;23.992;2022-12-10T04:15:05;92163.91;;;11.99;90.93
3250;BME280;1637;42.020;23.992;2022-12-10T04:17:50;92183.94;;;11.94;91.31
3250;BME280;1637;42.020;23.992;2022-12-10T04:20:18;92189.13;;;12.01;90.60
3250;BME280;1637;42.020;23.992;2022-12-10T04:23:03;92181.50;;;12.00;90.36
3250;BME280;1637;42.020;23.992;2022-12-10T04:25:47;92187.41;;;12.08;89.71
3250;BME280;1637;42.020;23.992;2022-12-10T04:28:32;92180.44;;;12.10;88.28
3250;BME280;1637;42.020;23.992;2022-12-10T04:30:59;92184.31;;;12.09;88.01
3250;BME280;1637;42.020;23.992;2022-12-10T04:33:25;92178.44;;;12.14;87.53
3250;BME280;1637;42.020;23.992;2022-12-10T04:35:52;92177.50;;;12.21;87.05
3250;BME280;1637;42.020;23.992;2022-12-10T04:38:20;92171.56;;;12.13;87.29
3250;BME280;1637;42.020;23.992;2022-12-10T04:40:47;92178.44;;;12.14;86.84
3250;BME280;1637;42.020;23.992;2022-12-10T04:43:14;92174.06;;;11.91;87.43
3250;BME280;1637;42.020;23.992;2022-12-10T04:45:41;92173.63;;;11.93;87.61
3250;BME280;1637;42.020;23.992;2022-12-10T04:48:07;92186.25;;;12.09;87.05
3250;BME280;1637;42.020;23.992;2022-12-10T04:50:34;92185.03;;;11.97;87.51
3250;BME280;1637;42.020;23.992;2022-12-10T04:53:01;92190.22;;;12.04;86.89
3250;BME280;1637;42.020;23.992;2022-12-10T04:55:29;92193.66;;;12.04;87.39
3250;BME280;1637;42.020;23.992;2022-12-10T04:57:56;92192.25;;;12.00;87.06
3250;BME280;1637;42.020;23.992;2022-12-10T05:00:23;92196.47;;;12.14;87.31
3250;BME280;1637;42.020;23.992;2022-12-10T05:02:50;92189.50;;;11.87;88.08
3250;BME280;1637;42.020;23.992;2022-12-10T05:05:17;92183.22;;;12.07;87.89
3250;BME280;1637;42.020;23.992;2022-12-10T05:07:44;92182.47;;;12.06;88.03
3250;BME280;1637;42.020;23.992;2022-12-10T05:10:11;92177.16;;;12.19;87.73
3250;BME280;1637;42.020;23.992;2022-12-10T05:12:39;92176.81;;;12.04;88.33
3250;BME280;1637;42.020;23.992;2022-12-10T05:15:07;92189.13;;;12.01;88.60
3250;BME280;1637;42.020;23.992;2022-12-10T05:17:34;92181.97;;;12.11;88.37
3250;BME280;1637;42.020;23.992;2022-12-10T05:20:01;92177.91;;;12.19;88.32
3250;BME280;1637;42.020;23.992;2022-12-10T05:22:27;92179.44;;;12.33;87.15
3250;BME280;1637;42.020;23.992;2022-12-10T05:25:11;92171.59;;;12.26;87.54
3250;BME280;1637;42.020;23.992;2022-12-10T05:27:41;92172.72;;;12.12;87.89
3250;BME280;1637;42.020;23.992;2022-12-10T05:30:09;92171.44;;;12.04;88.60
3250;BME280;1637;42.020;23.992;2022-12-10T05:32:36;92178.94;;;12.09;88.68
3250;BME280;1637;42.020;23.992;2022-12-10T05:35:04;92170.47;;;12.11;88.75
3250;BME280;1637;42.020;23.992;2022-12-10T05:37:31;92172.41;;;12.10;88.07
3250;BME280;1637;42.020;23.992;2022-12-10T05:39:58;92170.63;;;12.20;87.62
3250;BME280;1637;42.020;23.992;2022-12-10T05:42:24;92161.59;;;12.26;87.15
3250;BME280;1637;42.020;23.992;2022-12-10T05:44:53;92170.84;;;12.25;87.03
3250;BME280;1637;42.020;23.992;2022-12-10T05:47:19;92182.94;;;12.17;87.16
3250;BME280;1637;42.020;23.992;2022-12-10T05:49:46;92182.44;;;12.22;87.29
3250;BME280;1637;42.020;23.992;2022-12-10T05:52:13;92173.56;;;12.38;86.38
3250;BME280;1637;42.020;23.992;2022-12-10T05:54:40;92183.94;;;12.23;86.41
3250;BME280;1637;42.020;23.992;2022-12-10T05:57:10;92192.25;;;12.42;85.79
3250;BME280;1637;42.020;23.992;2022-12-10T05:59:36;92191.78;;;12.30;86.61
3250;BME280;1637;42.020;23.992;2022-12-10T06:02:05;92187.06;;;12.34;86.08
3250;BME280;1637;42.020;23.992;2022-12-10T06:04:31;92189.66;;;12.38;86.02
3250;BME280;1637;42.020;23.992;2022-12-10T06:06:58;92195.13;;;12.34;85.91
3250;BME280;1637;42.020;23.992;2022-12-10T06:09:25;92200.84;;;12.36;86.04
3250;BME280;1637;42.020;23.992;2022-12-10T06:11:52;92214.63;;;12.51;85.02
3250;BME280;1637;42.020;23.992;2022-12-10T06:14:18;92220.09;;;12.48;85.18
3250;BME280;1637;42.020;23.992;2022-12-10T06:16:45;92216.75;;;12.44;85.43
3250;BME280;1637;42.020;23.992;2022-12-10T06:19:13;92204.34;;;12.21;86.53
3250;BME280;1637;42.020;23.992;2022-12-10T06:21:40;92216.94;;;12.36;86.41
3250;BME280;1637;42.020;23.992;2022-12-10T06:24:07;92222.69;;;12.51;86.07
3250;BME280;1637;42.020;23.992;2022-12-10T06:26:34;92218.22;;;12.32;86.62
3250;BME280;1637;42.020;23.992;2022-12-10T06:29:01;92219.03;;;12.45;86.78
3250;BME280;1637;42.020;23.992;2022-12-10T06:31:30;92201.91;;;12.39;86.05
3250;BME280;1637;42.020;23.992;2022-12-10T06:33:57;92202.59;;;12.56;85.91
3250;BME280;1637;42.020;23.992;2022-12-10T06:36:25;92210.00;;;12.52;86.52
3250;BME280;1637;42.020;23.992;2022-12-10T06:38:52;92205.72;;;12.54;87.01
3250;BME280;1637;42.020;23.992;2022-12-10T06:41:19;92198.28;;;12.46;87.85
3250;BME280;1637;42.020;23.992;2022-12-10T06:43:47;92206.47;;;12.55;89.08
3250;BME280;1637;42.020;23.992;2022-12-10T06:46:15;92202.50;;;12.59;90.08
3250;BME280;1637;42.020;23.992;2022-12-10T06:48:42;92203.59;;;12.62;90.29
3250;BME280;1637;42.020;23.992;2022-12-10T06:51:09;92211.66;;;12.62;91.41
3250;BME280;1637;42.020;23.992;2022-12-10T06:53:38;92201.84;;;12.68;91.49
3250;BME280;1637;42.020;23.992;2022-12-10T06:56:06;92195.00;;;12.67;91.85
3250;BME280;1637;42.020;23.992;2022-12-10T06:58:35;92193.16;;;12.64;92.73
3250;BME280;1637;42.020;23.992;2022-12-10T07:01:04;92186.94;;;12.67;92.44
3250;BME280;1637;42.020;23.992;2022-12-10T07:03:31;92194.78;;;12.61;93.20
3250;BME280;1637;42.020;23.992;2022-12-10T07:05:59;92202.31;;;12.79;92.35
3250;BME280;1637;42.020;23.992;2022-12-10T07:08:26;92200.69;;;12.69;92.83
3250;BME280;1637;42.020;23.992;2022-12-10T07:10:55;92188.75;;;12.70;92.44
3250;BME280;1637;42.020;23.992;2022-12-10T07:13:21;92182.00;;;12.65;92.50
3250;BME280;1637;42.020;23.992;2022-12-10T07:15:48;92191.34;;;12.73;92.24
3250;BME280;1637;42.020;23.992;2022-12-10T07:18:15;92188.56;;;12.77;92.00
3250;BME280;1637;42.020;23.992;2022-12-10T07:20:42;92167.13;;;12.48;93.22
3250;BME280;1637;42.020;23.992;2022-12-10T07:23:09;92183.69;;;12.59;92.39
3250;BME280;1637;42.020;23.992;2022-12-10T07:25:35;92184.34;;;12.63;92.01
3250;BME280;1637;42.020;23.992;2022-12-10T07:28:04;92184.13;;;12.58;92.06
3250;BME280;1637;42.020;23.992;2022-12-10T07:30:30;92176.06;;;12.58;91.97
3250;BME280;1637;42.020;23.992;2022-12-10T07:32:57;92179.09;;;12.60;91.87
3250;BME280;1637;42.020;23.992;2022-12-10T07:35:24;92178.31;;;12.59;92.82
3250;BME280;1637;42.020;23.992;2022-12-10T07:37:51;92188.88;;;12.66;91.94
3250;BME280;1637;42.020;23.992;2022-12-10T07:40:18;92194.44;;;12.72;92.00
3250;BME280;1637;42.020;23.992;2022-12-10T07:42:44;92194.78;;;12.74;92.15
3250;BME280;1637;42.020;23.992;2022-12-10T07:45:13;92172.84;;;12.63;91.50
3250;BME280;1637;42.020;23.992;2022-12-10T07:47:39;92205.00;;;12.92;91.89
3250;BME280;1637;42.020;23.992;2022-12-10T07:50:07;92185.75;;;12.93;91.01
3250;BME280;1637;42.020;23.992;2022-12-10T07:52:34;92167.69;;;12.68;91.22
3250;BME280;1637;42.020;23.992;2022-12-10T07:55:01;92178.25;;;12.88;91.19
3250;BME280;1637;42.020;23.992;2022-12-10T07:57:28;92178.25;;;12.88;91.43
3250;BME280;1637;42.020;23.992;2022-12-10T07:59:55;92173.06;;;12.94;90.87
3250;BME280;1637;42.020;23.992;2022-12-10T08:02:25;92173.50;;;12.92;91.57
3250;BME280;1637;42.020;23.992;2022-12-10T08:04:51;92168.56;;;13.03;91.28
3250;BME280;1637;42.020;23.992;2022-12-10T08:07:18;92163.72;;;13.11;91.54
3250;BME280;1637;42.020;23.992;2022-12-10T08:09:45;92167.91;;;13.12;91.00
3250;BME280;1637;42.020;23.992;2022-12-10T08:12:12;92161.28;;;13.17;90.71
3250;BME280;1637;42.020;23.992;2022-12-10T08:14:39;92179.97;;;13.33;90.22
3250;BME280;1637;42.020;23.992;2022-12-10T08:17:05;92171.00;;;13.61;88.08
3250;BME280;1637;42.020;23.992;2022-12-10T08:19:34;92087.59;;;14.05;84.12
3250;BME280;1637;42.020;23.992;2022-12-10T08:22:00;92164.41;;;15.24;78.94
3250;BME280;1637;42.020;23.992;2022-12-10T08:24:27;92174.44;;;15.64;76.97
3250;BME280;1637;42.020;23.992;2022-12-10T08:26:54;92172.28;;;15.50;77.53
3250;BME280;1637;42.020;23.992;2022-12-10T08:29:21;92169.66;;;15.28;78.05
3250;BME280;1637;42.020;23.992;2022-12-10T08:31:48;92169.28;;;14.76;79.97
3250;BME280;1637;42.020;23.992;2022-12-10T08:34:16;92173.66;;;14.74;80.27
3250;BME280;1637;42.020;23.992;2022-12-10T08:36:45;92166.34;;;14.53;80.79
3250;BME280;1637;42.020;23.992;2022-12-10T08:39:12;92161.19;;;14.46;81.66
3250;BME280;1637;42.020;23.992;2022-12-10T08:41:41;92166.06;;;14.38;81.56
3250;BME280;1637;42.020;23.992;2022-12-10T08:44:07;92171.97;;;14.46;81.74
3250;BME280;1637;42.020;23.992;2022-12-10T08:46:34;92159.56;;;14.48;80.44
3250;BME280;1637;42.020;23.992;2022-12-10T08:49:01;92163.06;;;14.58;77.08
3250;BME280;1637;42.020;23.992;2022-12-10T08:51:28;92160.72;;;14.69;78.24
3250;BME280;1637;42.020;23.992;2022-12-10T08:53:56;92166.38;;;14.62;77.85
3250;BME280;1637;42.020;23.992;2022-12-10T08:56:23;92152.28;;;14.58;76.76
3250;BME280;1637;42.020;23.992;2022-12-10T08:58:50;92141.47;;;14.49;76.14
3250;BME280;1637;42.020;23.992;2022-12-10T09:01:18;92140.63;;;14.61;75.95
3250;BME280;1637;42.020;23.992;2022-12-10T09:03:45;92134.31;;;14.55;76.47
3250;BME280;1637;42.020;23.992;2022-12-10T09:06:14;92130.81;;;14.45;76.88
3250;BME280;1637;42.020;23.992;2022-12-10T09:08:41;92147.59;;;14.49;77.50
3250;BME280;1637;42.020;23.992;2022-12-10T09:11:12;92141.59;;;14.45;79.32
3250;BME280;1637;42.020;23.992;2022-12-10T09:13:39;92135.75;;;14.25;80.99
3250;BME280;1637;42.020;23.992;2022-12-10T09:16:06;92136.06;;;14.27;81.43
3250;BME280;1637;42.020;23.992;2022-12-10T09:18:33;92130.72;;;14.14;81.61
3250;BME280;1637;42.020;23.992;2022-12-10T09:21:04;92132.53;;;13.95;82.90
3250;BME280;1637;42.020;23.992;2022-12-10T09:23:31;92112.69;;;14.02;82.91
3250;BME280;1637;42.020;23.992;2022-12-10T09:25:58;92120.03;;;14.01;83.28
3250;BME280;1637;42.020;23.992;2022-12-10T09:28:27;92117.72;;;13.91;83.42
3250;BME280;1637;42.020;23.992;2022-12-10T09:30:57;92112.25;;;13.82;84.01
3250;BME280;1637;42.020;23.992;2022-12-10T09:33:24;92104.19;;;13.82;83.97
3250;BME280;1637;42.020;23.992;2022-12-10T09:35:52;92103.81;;;13.70;84.54
3250;BME280;1637;42.020;23.992;2022-12-10T09:38:19;92096.28;;;13.65;84.63
3250;BME280;1637;42.020;23.992;2022-12-10T09:40:56;92097.38;;;13.55;85.86
3250;BME280;1637;42.020;23.992;2022-12-10T09:43:37;92098.72;;;13.51;86.09
3250;BME280;1637;42.020;23.992;2022-12-10T09:46:13;92092.22;;;13.61;85.98
3250;BME280;1637;42.020;23.992;2022-12-10T09:48:52;92094.09;;;13.73;85.48
3250;BME280;1637;42.020;23.992;2022-12-10T09:51:25;92059.66;;;13.46;85.74
3250;BME280;1637;42.020;23.992;2022-12-10T09:53:55;92110.22;;;13.73;85.07
3250;BME280;1637;42.020;23.992;2022-12-10T09:56:28;92080.41;;;14.02;84.48
3250;BME280;1637;42.020;23.992;2022-12-10T09:59:01;92086.31;;;14.19;83.71
3250;BME280;1637;42.020;23.992;2022-12-10T10:01:31;92081.31;;;14.30;82.85
3250;BME280;1637;42.020;23.992;2022-12-10T10:04:00;92079.97;;;14.34;82.51
3250;BME280;1637;42.020;23.992;2022-12-10T10:06:27;92059.91;;;14.35;82.18
3250;BME280;1637;42.020;23.992;2022-12-10T10:08:57;92118.53;;;14.22;82.44
3250;BME280;1637;42.020;23.992;2022-12-10T10:11:28;92053.25;;;14.18;82.46
3250;BME280;1637;42.020;23.992;2022-12-10T10:14:01;92052.50;;;14.18;82.02
3250;BME280;1637;42.020;23.992;2022-12-10T10:16:33;92046.66;;;14.10;82.32
3250;BME280;1637;42.020;23.992;2022-12-10T10:19:03;92047.75;;;14.22;82.07
3250;BME280;1637;42.020;23.992;2022-12-10T10:21:34;92036.84;;;14.25;81.90
3250;BME280;1637;42.020;23.992;2022-12-10T10:24:02;92035.69;;;14.35;81.68
3250;BME280;1637;42.020;23.992;2022-12-10T10:26:31;92035.44;;;14.42;81.28
3250;BME280;1637;42.020;23.992;2022-12-10T10:29:02;92037.81;;;14.40;81.19
3250;BME280;1637;42.020;23.992;2022-12-10T10:31:32;92025.91;;;14.51;80.99
3250;BME280;1637;42.020;23.992;2022-12-10T10:34:01;91992.03;;;14.09;81.58
3250;BME280;1637;42.020;23.992;2022-12-10T10:36:30;91992.25;;;14.24;80.85
3250;BME280;1637;42.020;23.992;2022-12-10T10:39:08;92023.53;;;14.53;80.20
3250;BME280;1637;42.020;23.992;2022-12-10T10:41:35;92006.44;;;14.47;79.68
3250;BME280;1637;42.020;23.992;2022-12-10T10:44:13;92025.94;;;14.60;79.32
3250;BME280;1637;42.020;23.992;2022-12-10T10:46:41;92014.81;;;14.49;79.92
3250;BME280;1637;42.020;23.992;2022-12-10T10:49:19;92013.50;;;14.62;79.59
3250;BME280;1637;42.020;23.992;2022-12-10T10:51:48;92009.50;;;14.67;79.14
3250;BME280;1637;42.020;23.992;2022-12-10T10:54:31;92009.50;;;14.67;79.17
3250;BME280;1637;42.020;23.992;2022-12-10T10:57:02;91997.81;;;14.79;78.76
3250;BME280;1637;42.020;23.992;2022-12-10T10:59:32;91994.72;;;14.99;78.12
3250;BME280;1637;42.020;23.992;2022-12-10T11:02:04;91994.72;;;14.90;78.41
3250;BME280;1637;42.020;23.992;2022-12-10T11:04:37;91989.16;;;14.84;79.05
3250;BME280;1637;42.020;23.992;2022-12-10T11:07:22;91989.75;;;14.79;79.30
3250;BME280;1637;42.020;23.992;2022-12-10T11:09:52;91997.81;;;14.70;78.76
3250;BME280;1637;42.020;23.992;2022-12-10T11:12:27;91995.84;;;14.61;78.88
3250;BME280;1637;42.020;23.992;2022-12-10T11:14:56;91975.66;;;14.66;78.71
3250;BME280;1637;42.020;23.992;2022-12-10T11:17:25;91978.78;;;14.64;78.48
3250;BME280;1637;42.020;23.992;2022-12-10T11:19:58;91975.53;;;14.88;77.71
3250;BME280;1637;42.020;23.992;2022-12-10T11:22:28;91940.56;;;14.48;78.46
3250;BME280;1637;42.020;23.992;2022-12-10T11:24:55;91945.69;;;14.55;77.93
3250;BME280;1637;42.020;23.992;2022-12-10T11:27:32;91931.03;;;14.65;76.90
3250;BME280;1637;42.020;23.992;2022-12-10T11:30:08;91960.13;;;15.06;76.23
3250;BME280;1637;42.020;23.992;2022-12-10T11:32:53;91966.28;;;15.16;75.92
3250;BME280;1637;42.020;23.992;2022-12-10T11:35:36;91955.47;;;14.98;76.23
3250;BME280;1637;42.020;23.992;2022-12-10T11:38:18;91951.56;;;14.99;76.39
3250;BME280;1637;42.020;23.992;2022-12-10T11:40:49;91947.22;;;15.01;76.37
3250;BME280;1637;42.020;23.992;2022-12-10T11:43:30;91936.44;;;15.01;76.86
3250;BME280;1637;42.020;23.992;2022-12-10T11:46:17;91918.16;;;14.87;77.14
3250;BME280;1637;42.020;23.992;2022-12-10T11:48:58;91919.22;;;15.17;76.20
3250;BME280;1637;42.020;23.992;2022-12-10T11:51:32;91916.53;;;15.08;76.75
3250;BME280;1637;42.020;23.992;2022-12-10T11:54:10;91915.00;;;15.25;77.23
3250;BME280;1637;42.020;23.992;2022-12-10T11:56:43;91908.59;;;15.13;75.99
3250;BME280;1637;42.020;23.992;2022-12-10T11:59:17;91905.44;;;15.06;75.30
3250;BME280;1637;42.020;23.992;2022-12-10T12:01:57;91904.53;;;15.00;74.59
3250;BME280;1637;42.020;23.992;2022-12-10T12:04:32;91902.00;;;14.96;75.96
3250;BME280;1637;42.020;23.992;2022-12-10T12:07:12;91913.25;;;15.13;75.66
3250;BME280;1637;42.020;23.992;2022-12-10T12:09:52;91871.59;;;14.68;75.55
3250;BME280;1637;42.020;23.992;2022-12-10T12:12:28;91893.47;;;14.89;75.32
3250;BME280;1637;42.020;23.992;2022-12-10T12:15:01;91892.84;;;14.85;76.38
3250;BME280;1637;42.020;23.992;2022-12-10T12:17:33;91887.59;;;14.81;76.01
3250;BME280;1637;42.020;23.992;2022-12-10T12:20:04;91882.66;;;14.79;76.79
3250;BME280;1637;42.020;23.992;2022-12-10T12:22:42;91879.97;;;14.70;76.70
3250;BME280;1637;42.020;23.992;2022-12-10T12:25:16;91881.91;;;14.79;77.17
3250;BME280;1637;42.020;23.992;2022-12-10T12:27:51;91894.34;;;14.67;77.71
3250;BME280;1637;42.020;23.992;2022-12-10T12:30:20;91901.56;;;14.89;77.85
3250;BME280;1637;42.020;23.992;2022-12-10T12:32:54;91897.06;;;14.86;78.08
3250;BME280;1637;42.020;23.992;2022-12-10T12:35:28;91907.38;;;14.78;78.52
3250;BME280;1637;42.020;23.992;2022-12-10T12:38:03;91894.81;;;14.75;79.00
3250;BME280;1637;42.020;23.992;2022-12-10T12:40:37;91896.75;;;14.84;78.97
3250;BME280;1637;42.020;23.992;2022-12-10T12:43:11;91903.66;;;14.75;78.94
3250;BME280;1637;42.020;23.992;2022-12-10T12:45:41;91903.66;;;14.75;79.60
3250;BME280;1637;42.020;23.992;2022-12-10T12:48:19;91898.41;;;14.72;79.10
3250;BME280;1637;42.020;23.992;2022-12-10T12:50:53;91891.66;;;14.67;79.93
3250;BME280;1637;42.020;23.992;2022-12-10T12:53:22;91869.72;;;14.29;81.37
3250;BME280;1637;42.020;23.992;2022-12-10T12:55:57;91875.78;;;14.51;81.05
3250;BME280;1637;42.020;23.992;2022-12-10T12:58:37;91878.25;;;14.27;82.11
3250;BME280;1637;42.020;23.992;2022-12-10T13:01:16;91877.75;;;14.10;82.66
3250;BME280;1637;42.020;23.992;2022-12-10T13:03:48;91882.22;;;14.14;82.94
3250;BME280;1637;42.020;23.992;2022-12-10T13:06:20;91865.94;;;14.08;83.14
3250;BME280;1637;42.020;23.992;2022-12-10T13:08:52;91870.97;;;13.97;83.76
3250;BME280;1637;42.020;23.992;2022-12-10T13:11:37;91863.22;;;14.08;83.21
3250;BME280;1637;42.020;23.992;2022-12-10T13:14:16;91852.41;;;13.99;82.90
3250;BME280;1637;42.020;23.992;2022-12-10T13:17:30;91842.84;;;13.98;82.91
3250;BME280;1637;42.020;23.992;2022-12-10T13:20:29;91847.47;;;13.97;83.63
3250;BME280;1637;42.020;23.992;2022-12-10T13:22:57;91834.47;;;13.96;83.36
3250;BME280;1637;42.020;23.992;2022-12-10T13:25:41;91832.28;;;14.13;82.98